AREA preflight bulletin
Updated "live" 25 Feb 2020, 00:40

back to the map




METAR og TAF


KANGERLUSSUAQ
  AKTUEL BGSF 250020Z AUTO 05006KT 9999NDV -SHSN BKN032/// M21/M24 Q1013=
  TAF 24 timer BGSF 241649Z 2418/2424 06008KT 9999 BKN030 TEMPO 2418/2424 SCT030=

SISIMIUT
  AKTUEL BGSS 250020Z AUTO 03003KT 9999NDV BKN031/// OVC056/// M15/M21 Q1013=
  TAF 9 timer BGSS 242125Z 2421/2422 CNL=

MANIITSOQ
  AKTUEL BGMQ 250020Z AUTO 29015KT 9999NDV -SN FEW017/// SCT023/// BKN027/// M13/M16 Q1012=
  TAF 9 timer BGMQ 241608Z 2416/2419 31014KT 9999 FEW008 BKN040 TEMPO 2416/2419 1000 SHSN DRSN BKN008=

NUUK
  AKTUEL BGGH 250020Z AUTO 25008KT 220V300 9999NDV BKN024/// M12/M16 Q1013=
  TAF 9 timer BGGH 242252Z 2423/2424 CNL=

ILULISSAT
  AKTUEL BGJN 250020Z AUTO 12010KT 4100NDV -SG FEW021/// BKN025/// OVC029/// M16/M19 Q1013=
  TAF 9 timer BGJN 241936Z 2419/2421 14010KT 9999 BKN025 TEMPO 2419/2421 2000 -SHSN DRSN BKN009=

AASIAAT
  AKTUEL BGAA 250020Z AUTO 17010KT 150V210 9999NDV -SN OVC020/// M14/M18 Q1012=
  TAF 9 timer BGAA 241455Z 2415/2420 22008KT 9999 -SN BKN020 TEMPO 2415/2420 VRB08KT 3000 BKN012=


SIGMETS:

Ingen SIGMET fundet:

SNOWTAM:

ICAO
BGSF (KANGERLUSSUAQ)

valid from:
2002241910

Notam_id:
0402

SNOWTAM 0402 A) BGSF B) 02241910 C) 09 F) 48/48/48 G) 7/7/7 H) 5/5/5 N) A/38/GOOD B C/438/GOOD D/438/MEDIUM TO POOR R) N/38/POOR E/438/POOR W/4387/MEDIUM TO POOR HELIAPRON/438/POOR T) MEASURED FRICTION COEFFICIENTS 64/80/63 TAP, RWY CONTAMINATION 10 PERCENT OF 2MM DRY SNOW AND 25 PERCENT 5MM COMPACTED OR ROLLED SNOW


ICAO
BGSS (SISIMIUT)

valid from:
2002241925

Notam_id:
0233

SNOWTAM 0233 A) BGSS B) 02241925 C) 13 F) 8/8/8 G) 2/2/2 H) 5/5/5 N) 8/GOOD R) 48/GOOD T) RWY CONTAMINATION 50 PERCENT 2MM COMPACTED SNOW MEASURED FRICTION COEFFICIENTS 72/62/62 TAP


ICAO
BGMQ (MANIITSOQ)

valid from:
2002241729

Notam_id:
0220

SNOWTAM 0220 A) BGMQ B) 02241729 C) 16 F) 84/84/84 G) 2/2/2 H) 5/5/5 N) 84/GOOD R) 84/GOOD T) RWY CONTAMINATION 25 PERCENT 1MM COMPACTED SNOW AND 50 PERCENT 2MM DRY SNOW - MEASURED FRICTION COFFICIENTS 70/90/90 TAP


ICAO
BGGH (NUUK)

valid from:
2002242108

Notam_id:
0603

SNOWTAM 0603 A) BGGH B) 02242108 C) 05 F) 8/8/8 G) 1/1/1 H) 5/5/5 N) 48/GOOD R) 487/POOR T) RWY CONTAMINATION 10 PERCENT 1MM COMPACTED SNOW- MEASURED FRICTION COEFFICIENTS 74/77/70 TAP


ICAO
BGAA (AASIAAT)

valid from:
2002241820

Notam_id:
0277

SNOWTAM 0277 A) BGAA B) 02241820 C) 11 F) 4/4/4 G) 1/1/1 H) 5/5/5 N) 4/GOOD R) 4/GOOD T) RUNWAY CONTAMINATION 100 PERCENT 1MM DRY SNOW - MEASURED FRICTION COEFFICIENTS 83/75/80 TAP



NOTAM/SNOWTAM for operationel use has to be confirmed with the
nearest AIS Briefing Office prior to a flight.

ICAO
BGSS (SISIMIUT)

FIR
BGGL

Notam_id:
BGB0010/20

valid from:
2001041140

E) BGSS AFIS FREQ 118,100 MHZ NO COVERAGE IN SECTOR BETWEEN 280 MAG AND 110 MAG BELOW 7000FT.

valid to:
2005301800


Replacing:
BGB0696/19

ICAO
BGSS (SISIMIUT)

FIR
BGGL

Notam_id:
BGB0176/20

valid from:
2002111251

E) ONLY ONE GROUND POWER UNIT AVBL.

valid to:
2002291800


Replacing:
BGB0157/20

ICAO
BGSS (SISIMIUT)

FIR
BGGL

Notam_id:
BGB0214/20

valid from:
2002242028

E) RWY 13 PAPI LEFT SIDE U/S. RWY 31 PAPI RIGHT SIDE U/S.

valid to:
2003022100EST


Replacing:
BGB0202/20

ICAO
BGSS (SISIMIUT)

FIR
BGGL

Notam_id:
BGB0156/20

valid from:
2002041714

E) SNOW REMOVAL EQUIPMENT REDUCED - IN CASE OF HEAVY SNOWFALL DELAYS MIGHT OCCUR.

valid to:
2003311800


Replacing:
BGB0131/20

ICAO
BGGH (NUUK)

FIR
BGGL

Notam_id:
BGB0205/20

valid from:
2003221300

E) RWY 05/23 CLSD DUE TO BLASTING CLOSE TO AD SUNDAY MARCH 22 BTW 1300-1500. BLASTING WILL BE CANCELLED IN CASE OF SAR, MEDEVAC OR EMERGENCY

valid to:
2003221500




ICAO
BGGH (NUUK)

FIR
BGGL

Notam_id:
BGB0204/20

valid from:
2003081300

E) RWY 05/23 CLSD DUE TO BLASTING CLOSE TO AD SUNDAY MARCH 8TH BTW 1300-1500. BLASTING WILL BE CANCELLED IN CASE OF SAR, MEDEVAC OR EMERGENCY

valid to:
2003081500




ICAO
BGGH (NUUK)

FIR
BGGL

Notam_id:
BGB0084/20

valid from:
2001211253

E) LIGHTING ON RWY DESIGNATION SIGNS U/S.

valid to:
2002281500EST




ICAO
BGGH (NUUK)

FIR
BGGL

Notam_id:
BGB0819/19

valid from:
1912161442

E) BGGH AFIS FREQ 119.100 MHZ LIMITED RADIOCOVERAGE WITHIN TIZ TO THE NE, E, SE AND S.

valid to:
2003011200EST


Replacing:
BGB0814/19

ICAO
BGJN (ILULISSAT)

FIR
BGGL

Notam_id:
BGB0153/20

valid from:
2003260000

E) TRIGGER NOTAM - PERM AIP AIRAC AMDT 01/20 WEF 26 MAR 2020. AS A CONSEQUENCE OF THE REMOVAL FROM ENR 4.4 OF ALL WAYPOINTS NOT RELATED TO THE ENROUTE STRUCTURE, COORDINATES FOR WAYPOINT INGAS HAVE BEEN ADDED TO IAC H NDB + DME 07.

valid to:
2004082359




ICAO
BGJN (ILULISSAT)

FIR
BGGL

Notam_id:
BGB0186/20

valid from:
2002121510

E) ILULISSAT REMOTE VHF 119.1 MHZ TRANSMITTER AT PINGO TELESITE U/S.

valid to:
2005312359


Replacing:
BGB0184/20

ICAO
BGGL (SONDRESTROM FIR)

FIR
BGGL

Notam_id:
BGA0074/20

valid from:
2002191400

E) NUUK INFORMATION FREQ 121.300 MHZ PSN 653054N0370944W KULUSUK. VHF WILL BE SUBJECT TO INCREASED SOLAR INTERFERENCE AND WILL BE UNRELIABLE APPROX. BETWEEN 1400Z AND 1600Z EVERY DAY.

valid to:
2003051600




ICAO
BGGL (SONDRESTROM FIR)

FIR
BGGL

Notam_id:
BGA0483/19

valid from:
1909271038

E) NUUK INFORMATION FREQ 5526 KHZ PSN 6334N03707W KULUSUK U/S.

valid to:
2004011800




ICAO
BGGL (SONDRESTROM FIR)

FIR
BGGL

Notam_id:
BGA0025/20

valid from:
2002010556

E) CHECKLIST YEAR=2018 0199 YEAR=2019 0483 0601 0608 0609 YEAR=2020 0010 0023 LATEST PUBLICATIONS AIP AIRAC AMDT IFR 008/2019 EFFECTIVE DATE 05 DEC 19 AIP AMDT IFR 003/2018 EFFECTIVE DATE 15 MAR 18 AIP SUP IFR 002/2019 EFFECTIVE DATE 08 NOV 19 AIC IFR A001/2019 EFFECTIVE DATE 17 JAN 19 AIC CHECKLIST AIP IFR A001/2016 A002/2016 A001/2017 A002/2017 A002/2018 A003/2018 A004/2018 A001/2019 AIP VFR NIL AIP MIL NIL SUP CHECKLIST AIP IFR NIL AIP VFR NIL AIP MIL NIL

valid to:
2003010556EST


Replacing:
BGA0001/20

ICAO
BGGL (SONDRESTROM FIR)

FIR
BGGL

Notam_id:
BGB0146/20

valid from:
2002010556

E) CHECKLIST YEAR=2019 0606 0677 0734 0765 0787 0808 0819 0828 0829 YEAR=2020 0010 0084 0090 0114 0116 0122 0131 0137 0141 0144 0145 LATEST PUBLICATIONS AIP AIRAC AMDT IFR 008/2019 EFFECTIVE DATE 05 DEC 19 AIP AMDT IFR 003/2018 EFFECTIVE DATE 15 MAR 18 AIP SUP IFR 002/2019 EFFECTIVE DATE 08 NOV 19 AIC IFR A001/2019 EFFECTIVE DATE 17 JAN 19 AIC CHECKLIST AIP IFR A001/2016 A002/2016 A001/2017 A002/2017 A002/2018 A003/2018 A004/2018 A001/2019 AIP VFR NIL AIP MIL NIL SUP CHECKLIST AIP IFR NIL AIP VFR NIL AIP MIL NIL

valid to:
2003010556EST


Replacing:
BGB0001/20

ICAO
BGGL (SONDRESTROM FIR)

FIR
BGGL

Notam_id:
BGC0032/20

valid from:
2002010557

E) CHECKLIST YEAR=2019 0132 0133 YEAR=2020 0018 0019 0021 0024 0031 LATEST PUBLICATIONS AIP AIRAC AMDT IFR 008/2019 EFFECTIVE DATE 05 DEC 19 AIP AMDT IFR 003/2018 EFFECTIVE DATE 15 MAR 18 AIP SUP IFR 002/2019 EFFECTIVE DATE 08 NOV 19 AIC IFR A001/2019 EFFECTIVE DATE 17 JAN 19 AIC CHECKLIST AIP IFR A001/2016 A002/2016 A001/2017 A002/2017 A002/2018 A003/2018 A004/2018 A001/2019 AIP VFR NIL AIP MIL NIL SUP CHECKLIST AIP IFR NIL AIP VFR NIL AIP MIL NIL

valid to:
2003010557EST


Replacing:
BGC0001/20

ICAO
BGGL (SONDRESTROM FIR)

FIR
BGGL

Notam_id:
BGA0010/20

valid from:
2002270000

E) AIP GREENLAND AIRAC AMDT EFFECTIVE DATE 27 FEB 2020: NIL

valid to:
2003112359




ICAO
BGGL (SONDRESTROM FIR)

FIR
BGGL

Notam_id:
BGA0199/18

valid from:
1805310935

E) GREENLAND AND ADJACENT WATERS ARE CONSIDERED HOSTILE AREAS BY THE CIVIL AVIATION AUTHORITY (TBST). THREE MAJOR REASONS CONTRIBUTE TO DEFINING THE AREA AS HOSTILE: A SAFE FORCED LANDING CANNOT BE ACCOMPLISHED BECAUSE THE SURFACE IS INADEQUATE. THE HELICOPTER OCCUPANTS CANNOT BE ADEQUATELY PROTECTED FROM THE ELEMENTS. SEARCH AND RESCUE RESPONSE/CAPABILITY ARE NOT PROVIDED CONSISTENT WITH ANTICIPATED EXPOSURE.

valid to:
PERM




ICAO
BGGL (SONDRESTROM FIR)

FIR
BGGL

Notam_id:
BGA0027/20

valid from:
2003260000

E) TRIGGER NOTAM - PERM AIP AIRAC AMDT 01/20 WEF 26 MAR 2020. REF GEN 2.4: BGIO, BGMO, BGQK AND BGSO WITHDRAWN. REF ENR 4.4: NEW LAYOUT AND DESIGNATOR UPDATED. DESIGNATOR ADMIP, ANVEP, BAMUG, DOPOK, ELTUX, GENSA, GONEN, GUBDA, INGAS, KULOX, KUVIG, LOBKA, LUTEV, MADIX, NANOK, NIPOT, NODBA, NOVGO, OSVOV, PIXIV, ROPKI, UVIRI AND VAPAN DELETED AS THEY DID NOT HAVE ANY RELATION TO THE ENROUTE STRUCTURE AND ARE NOW ONLY SHOWN ON RESPECTIVE IAC IN AD 2.

valid to:
2004082359




ICAO
BGAA (AASIAAT)

FIR
BGGL

Notam_id:
BGB0828/19

valid from:
1912221307

E) AIP GREENLAND AD 2 - BGAA - 1 - 6.1: CAT 5. PPR 3 HR BEFORE LNDG OR TKOF, FOR ALL TRAFIC OVER 10 TONS, MORE THAN 19 PASSENGERS, WITH EXCEPTION OF SCHEDULED AND COMMERCIAL TRAFIC.

valid to:
PERM





Copyright Naviair   2003-2016